Louisa, VA

10:09 PM EST on February 05, 2016 (GMT -0500)
Louisa County-Freeman

Weather History for KLKU - March, 2013

Change the Weather History Date:

Thursday, March 28, 2013

  Actual Average (KCHO) Record (KCHO)
Temperature  
Mean Temperature 38 °F 50 °F  
Max Temperature 53 °F 62 °F 88 °F (1907)
Min Temperature 24 °F 38 °F 19 °F (2001)
Degree Days  
Heating Degree Days 26 15  
Month to date heating degree days 546  
Since 1 July heating degree days 3958  
Cooling Degree Days 0 0  
Month to date cooling degree days 0  
Year to date cooling degree days 0  
Moisture  
Dew Point 24 °F    
Average Humidity 57    
Maximum Humidity 86    
Minimum Humidity 33    
Precipitation  
Precipitation 0.00 in 0.13 in 1.14 in (2010)
Month to date precipitation 3.24  
Year to date precipitation 8.71  
Sea Level Pressure  
Sea Level Pressure 30.15 in    
Wind  
Wind Speed 5 mph (West)    
Max Wind Speed 20 mph    
Max Gust Speed 24 mph    
Visibility 10 miles    
Events      
T = Trace of Precipitation, MM = Missing Value Source: NWS Daily Summary

Daily Weather History Graph

Daily Weather History Graph

Search for Another Location

Airport or City:

Trip Planner

Search our weather history database for the weather conditions in past years. The results will help you decide how hot, cold, wet, or windy it might be!

Date:

Astronomy

Mar. 28, 2013 Rise Set
Actual Time 7:02 AM EDT 7:31 PM EDT
Civil Twilight 6:36 AM EDT 7:57 PM EDT
Nautical Twilight 6:05 AM EDT 8:29 PM EDT
Astronomical Twilight 5:33 AM EDT 9:00 PM EDT
Moon 9:18 PM EDT (3/28) 7:31 AM EDT (3/28)
Length of Visible Light 13h 21m
Length of Day
12h 28m
Full, 98% of the Moon is Illuminated
Mar 28
Full
Apr 3
Last Quarter
Apr 10
New
Apr 18
First Quarter
Apr 25
Full

Hourly Weather History & Observations

Time (EDT) Temp. Windchill Dew Point Humidity Pressure Visibility Wind Dir Wind Speed Gust Speed Precip Events Conditions
12:15 AM 32.0 °F - 24.8 °F 75% 30.14 in 10.0 mi Calm Calm - N/A   Clear
12:35 AM 33.8 °F - 23.0 °F 65% 30.14 in 10.0 mi Calm Calm - N/A   Clear
12:55 AM 30.2 °F - 24.8 °F 80% 30.14 in 10.0 mi Calm Calm - N/A   Clear
1:15 AM 28.4 °F 24.6 °F 23.0 °F 80% 30.14 in 10.0 mi SW 3.5 mph - N/A   Clear
1:35 AM 30.2 °F 24.3 °F 23.0 °F 75% 30.14 in 10.0 mi WSW 5.8 mph - N/A   Clear
1:55 AM 30.2 °F 26.7 °F 23.0 °F 75% 30.13 in 10.0 mi WSW 3.5 mph - N/A   Clear
2:15 AM 30.2 °F - 23.0 °F 75% 30.13 in 10.0 mi Calm Calm - N/A   Clear
2:35 AM 28.4 °F - 23.0 °F 80% 30.13 in 10.0 mi Calm Calm - N/A   Clear
2:55 AM 26.6 °F - 21.2 °F 80% 30.13 in 10.0 mi Calm Calm - N/A   Clear
3:15 AM 26.6 °F - 23.0 °F 86% 30.13 in 10.0 mi Calm Calm - N/A   Clear
3:35 AM 26.6 °F - 21.2 °F 80% 30.13 in 10.0 mi Calm Calm - N/A   Clear
3:55 AM 24.8 °F 20.5 °F 21.2 °F 86% 30.12 in 10.0 mi SW 3.5 mph - N/A   Clear
4:15 AM 30.2 °F 25.4 °F 23.0 °F 75% 30.12 in 10.0 mi SW 4.6 mph - N/A   Clear
4:35 AM 28.4 °F 24.6 °F 23.0 °F 80% 30.11 in 10.0 mi SW 3.5 mph - N/A   Clear
4:55 AM 28.4 °F 24.6 °F 23.0 °F 80% 30.12 in 10.0 mi WSW 3.5 mph - N/A   Clear
5:15 AM 26.6 °F 22.6 °F 23.0 °F 86% 30.12 in 10.0 mi WSW 3.5 mph - N/A   Clear
5:35 AM 26.6 °F 22.6 °F 23.0 °F 86% 30.11 in 10.0 mi SW 3.5 mph - N/A   Clear
5:55 AM 26.6 °F 22.6 °F 23.0 °F 86% 30.12 in 10.0 mi WSW 3.5 mph - N/A   Clear
6:15 AM 28.4 °F 23.3 °F 23.0 °F 80% 30.12 in 10.0 mi WSW 4.6 mph - N/A   Clear
6:35 AM 30.2 °F 25.4 °F 21.2 °F 69% 30.12 in 10.0 mi WSW 4.6 mph - N/A   Clear
6:55 AM 30.2 °F 23.4 °F 21.2 °F 69% 30.12 in 10.0 mi West 6.9 mph - N/A   Clear
7:15 AM 32.0 °F 25.6 °F 21.2 °F 64% 30.12 in 10.0 mi West 6.9 mph - N/A   Clear
7:35 AM 33.8 °F 28.6 °F 23.0 °F 65% 30.12 in 10.0 mi West 5.8 mph - N/A   Clear
7:55 AM 33.8 °F 29.6 °F 24.8 °F 70% 30.13 in 10.0 mi WSW 4.6 mph - N/A   Clear
8:15 AM 33.8 °F - 26.6 °F 75% 30.13 in 10.0 mi Calm Calm - N/A   Clear
8:35 AM 37.4 °F 34.9 °F 26.6 °F 65% 30.13 in 10.0 mi West 3.5 mph - N/A   Clear
8:55 AM 42.8 °F 38.0 °F 26.6 °F 53% 30.14 in 10.0 mi West 8.1 mph - N/A   Clear
9:15 AM 44.6 °F 40.2 °F 24.8 °F 46% 30.14 in 10.0 mi West 8.1 mph - N/A   Clear
9:35 AM 44.6 °F 39.7 °F 26.6 °F 49% 30.14 in 10.0 mi West 9.2 mph - N/A   Clear
9:55 AM 46.4 °F 40.4 °F 24.8 °F 43% 30.14 in 10.0 mi NW 13.8 mph - N/A   Scattered Clouds
10:15 AM 48.2 °F - 26.6 °F 43% 30.14 in 10.0 mi WNW 12.7 mph - N/A   Scattered Clouds
10:35 AM 50.0 °F - 26.6 °F 40% 30.14 in 10.0 mi WNW 16.1 mph 21.9 mph N/A   Scattered Clouds
10:55 AM 50.0 °F - 26.6 °F 40% 30.15 in 10.0 mi WNW 10.4 mph 23.0 mph N/A   Scattered Clouds
11:15 AM 50.0 °F - 26.6 °F 40% 30.15 in 10.0 mi NW 13.8 mph 20.7 mph N/A   Mostly Cloudy
11:35 AM 48.2 °F - 24.8 °F 40% 30.15 in 10.0 mi West 19.6 mph 23.0 mph N/A   Scattered Clouds
11:55 AM 48.2 °F - 24.8 °F 40% 30.15 in 10.0 mi WNW 12.7 mph 24.2 mph N/A   Mostly Cloudy
12:15 PM 50.0 °F - 24.8 °F 37% 30.15 in 10.0 mi NW 15.0 mph 24.2 mph N/A   Overcast
12:35 PM 51.8 °F - 24.8 °F 35% 30.14 in 10.0 mi NW 9.2 mph 20.7 mph N/A   Overcast
12:55 PM 50.0 °F - 24.8 °F 37% 30.14 in 10.0 mi NW 13.8 mph 19.6 mph N/A   Overcast
1:15 PM 51.8 °F - 26.6 °F 38% 30.14 in 10.0 mi NW 13.8 mph 17.3 mph N/A   Mostly Cloudy
1:35 PM 51.8 °F - 24.8 °F 35% 30.14 in 10.0 mi WNW 13.8 mph 23.0 mph N/A   Mostly Cloudy
1:55 PM 50.0 °F - 24.8 °F 37% 30.13 in 10.0 mi WNW 13.8 mph 23.0 mph N/A   Overcast
2:15 PM 50.0 °F - 24.8 °F 37% 30.13 in 10.0 mi NW 11.5 mph 23.0 mph N/A   Overcast
2:35 PM 50.0 °F - 24.8 °F 37% 30.13 in 10.0 mi NW 12.7 mph 23.0 mph N/A   Overcast
2:55 PM 53.6 °F - 24.8 °F 33% 30.13 in 10.0 mi NW 11.5 mph 19.6 mph N/A   Overcast
3:15 PM 50.0 °F - 24.8 °F 37% 30.13 in 10.0 mi WNW 10.4 mph 23.0 mph N/A   Overcast
3:35 PM 51.8 °F - 24.8 °F 35% 30.13 in 10.0 mi NW 13.8 mph - N/A   Overcast
3:55 PM 53.6 °F - 24.8 °F 33% 30.13 in 10.0 mi NW 13.8 mph - N/A   Overcast
4:15 PM 51.8 °F - 24.8 °F 35% 30.13 in 10.0 mi WNW 13.8 mph 24.2 mph N/A   Overcast
4:35 PM 50.0 °F - 24.8 °F 37% 30.14 in 10.0 mi NW 9.2 mph 20.7 mph N/A   Overcast
4:55 PM 48.2 °F - 24.8 °F 40% 30.14 in 10.0 mi WNW 9.2 mph - N/A   Overcast
5:15 PM 50.0 °F - 24.8 °F 37% 30.15 in 10.0 mi NW 12.7 mph 21.9 mph N/A   Overcast
5:35 PM 50.0 °F - 24.8 °F 37% 30.15 in 10.0 mi WNW 13.8 mph 23.0 mph N/A   Overcast
5:55 PM 48.2 °F - 24.8 °F 40% 30.16 in 10.0 mi WNW 11.5 mph 16.1 mph N/A   Overcast
6:15 PM 48.2 °F - 24.8 °F 40% 30.16 in 10.0 mi WNW 12.7 mph 19.6 mph N/A   Overcast
6:35 PM 48.2 °F - 24.8 °F 40% 30.17 in 10.0 mi WNW 11.5 mph 18.4 mph N/A   Overcast
6:55 PM 48.2 °F - 24.8 °F 40% 30.18 in 10.0 mi WNW 10.4 mph - N/A   Overcast
7:15 PM 46.4 °F 42.4 °F 24.8 °F 43% 30.19 in 10.0 mi WNW 8.1 mph - N/A   Overcast
7:35 PM 46.4 °F 42.4 °F 24.8 °F 43% 30.20 in 10.0 mi WNW 8.1 mph - N/A   Overcast
7:55 PM 44.6 °F 42.2 °F 24.8 °F 46% 30.20 in 10.0 mi WNW 4.6 mph - N/A   Overcast
8:15 PM 44.6 °F 41.4 °F 24.8 °F 46% 30.21 in 10.0 mi NW 5.8 mph - N/A   Mostly Cloudy
8:35 PM 42.8 °F 40.1 °F 24.8 °F 49% 30.21 in 10.0 mi NW 4.6 mph - N/A   Scattered Clouds
8:55 PM 42.8 °F 40.1 °F 24.8 °F 49% 30.22 in 10.0 mi WNW 4.6 mph - N/A   Clear
9:15 PM 37.4 °F - 24.8 °F 60% 30.22 in 10.0 mi Calm Calm - N/A   Clear
9:35 PM 33.8 °F - 24.8 °F 70% 30.22 in 10.0 mi Calm Calm - N/A   Scattered Clouds
9:55 PM 33.8 °F - 24.8 °F 70% 30.23 in 10.0 mi Calm Calm - N/A   Clear
10:15 PM 30.2 °F 26.7 °F 24.8 °F 80% 30.23 in 10.0 mi WSW 3.5 mph - N/A   Clear
10:35 PM 30.2 °F 26.7 °F 24.8 °F 80% 30.24 in 10.0 mi WSW 3.5 mph - N/A   Mostly Cloudy
10:55 PM 33.8 °F 30.8 °F 24.8 °F 70% 30.24 in 10.0 mi WSW 3.5 mph - N/A   Overcast
11:15 PM 33.8 °F 29.6 °F 24.8 °F 70% 30.24 in 10.0 mi West 4.6 mph - N/A   Overcast
11:35 PM 35.6 °F 31.7 °F 24.8 °F 65% 30.24 in 10.0 mi West 4.6 mph - N/A   Overcast
11:55 PM 35.6 °F 32.8 °F 24.8 °F 65% 30.24 in 10.0 mi West 3.5 mph - N/A   Overcast